Lake Linganore, Maryland
Current Conditions -  °F | °C
As of 8:15 PM on Monday 26 Jan 2015 (Local Time) from KFDK Reporting Station
Light Snow Light Snow  
Wind Chill: 20°   Ceiling: 1700
Heat Index: 28°   Visibility: 2mi
Dew Point: 23°   Wind: 9mph
Humidity: 80%   Direction: 60°ENE
Pressure: 29.82"   Gusts: NA
Location:  39.4015°N, 77.2845°W
Report Text: KFDK 270115Z AUTO 06008KT 2SM -SN SCT010 OVC017 M02/M05 A2982 RMK AO2 LTG DSNT E
Loading
Personal Weather Stations






























Interactive Weather Map New forecast layout! Learn more

10-Day Weather Forecast

Advertisements
Track Severe Weather on mobile